Time;durP1;ratioP1;P1;durP2;ratioP2;P2;SDS_P1;SDS_P2;PMS_P1;PMS_P2;Temp;Humidity;BMP_temperature;BMP_pressure;BME280_temperature;BME280_humidity;BME280_pressure;Samples;Min_cycle;Max_cycle;Signal;HPM_P1;HPM_P2
2022/01/01 00:01:56;;;;;;;57.70;39.78;;;;;;;;;;5035951;28;20045;-69
2022/01/01 00:04:21;;;;;;;63.55;42.92;;;;;;;;;;5038615;28;20374;-69
2022/01/01 00:06:47;;;;;;;59.53;40.67;;;;;;;;;;5048019;28;20033;-70
2022/01/01 00:09:13;;;;;;;36.88;28.17;;;;;;;;;;5051337;28;20515;-69
2022/01/01 00:11:38;;;;;;;41.83;30.02;;;;;;;;;;5048681;28;20053;-70
2022/01/01 00:14:04;;;;;;;37.53;29.50;;;;;;;;;;5035423;28;20029;-69
2022/01/01 00:16:29;;;;;;;41.53;30.10;;;;;;;;;;5038003;28;20060;-70
2022/01/01 00:18:55;;;;;;;41.30;29.02;;;;;;;;;;5048705;28;20037;-70
2022/01/01 00:21:21;;;;;;;41.83;29.73;;;;;;;;;;5031401;28;20099;-70
2022/01/01 00:23:46;;;;;;;39.45;30.00;;;;;;;;;;5030009;28;20049;-69
2022/01/01 00:26:12;;;;;;;45.05;31.85;;;;;;;;;;5043485;28;20033;-69
2022/01/01 00:28:37;;;;;;;44.53;32.17;;;;;;;;;;5047558;28;20451;-69
2022/01/01 00:31:03;;;;;;;51.75;33.05;;;;;;;;;;5045287;28;20097;-69
2022/01/01 00:33:29;;;;;;;48.58;34.35;;;;;;;;;;5041734;28;20063;-69
2022/01/01 00:35:56;;;;;;;51.95;35.95;;;;;;;;;;5052802;28;20078;-69
2022/01/01 00:38:21;;;;;;;54.55;35.83;;;;;;;;;;5048727;28;20037;-69
2022/01/01 00:40:47;;;;;;;48.72;34.08;;;;;;;;;;5059127;28;20083;-69
2022/01/01 00:43:13;;;;;;;44.40;33.28;;;;;;;;;;5060961;28;20045;-69
2022/01/01 00:45:38;;;;;;;44.60;33.38;;;;;;;;;;5053330;28;20028;-69
2022/01/01 00:48:04;;;;;;;41.65;31.13;;;;;;;;;;5044376;28;21285;-69
2022/01/01 00:50:30;;;;;;;48.05;35.35;;;;;;;;;;5044915;28;20141;-69
2022/01/01 00:52:58;;;;;;;48.35;33.80;;;;;;;;;;5047060;28;20832;-69
2022/01/01 00:55:24;;;;;;;48.50;34.80;;;;;;;;;;5048567;28;20124;-69
2022/01/01 00:57:49;;;;;;;42.25;32.55;;;;;;;;;;5048606;28;20120;-70
2022/01/01 01:00:15;;;;;;;44.58;32.17;;;;;;;;;;5047738;28;20036;-69
2022/01/01 01:02:41;;;;;;;40.05;30.85;;;;;;;;;;5045319;28;20547;-69
2022/01/01 01:05:07;;;;;;;39.22;29.85;;;;;;;;;;5058670;28;20090;-69
2022/01/01 01:07:32;;;;;;;33.47;28.70;;;;;;;;;;5049357;28;20099;-69
2022/01/01 01:09:58;;;;;;;31.92;26.27;;;;;;;;;;5046495;28;20036;-69
2022/01/01 01:12:27;;;;;;;34.10;25.60;;;;;;;;;;5044739;28;20107;-69
2022/01/01 01:14:53;;;;;;;32.38;25.60;;;;;;;;;;5050093;28;20029;-70
2022/01/01 01:17:19;;;;;;;35.83;27.13;;;;;;;;;;5043832;28;20499;-70
2022/01/01 01:19:45;;;;;;;32.55;27.27;;;;;;;;;;5046622;28;20488;-70
2022/01/01 01:22:10;;;;;;;33.35;27.45;;;;;;;;;;5047970;28;20052;-70
2022/01/01 01:24:37;;;;;;;33.97;26.13;;;;;;;;;;5047736;28;20064;-70
2022/01/01 01:27:04;;;;;;;33.08;27.05;;;;;;;;;;5044208;28;20044;-70
2022/01/01 01:29:31;;;;;;;37.83;26.77;;;;;;;;;;5043247;28;20262;-70
2022/01/01 01:31:56;;;;;;;30.80;26.70;;;;;;;;;;5049434;28;20044;-70
2022/01/01 01:34:22;;;;;;;33.95;26.20;;;;;;;;;;5045972;28;20403;-70
2022/01/01 01:36:48;;;;;;;32.50;25.55;;;;;;;;;;5044342;28;20474;-70
2022/01/01 01:39:13;;;;;;;33.78;27.10;;;;;;;;;;5044533;28;20824;-70
2022/01/01 01:41:42;;;;;;;36.05;27.05;;;;;;;;;;5052269;28;20566;-70
2022/01/01 01:44:23;;;;;;;37.25;29.70;;;;;;;;;;5046613;28;20160;-70
2022/01/01 01:46:49;;;;;;;36.58;29.05;;;;;;;;;;5046123;28;20223;-70
2022/01/01 01:49:14;;;;;;;37.08;30.08;;;;;;;;;;5047508;28;20145;-70
2022/01/01 01:51:40;;;;;;;34.72;28.83;;;;;;;;;;5052292;28;20163;-70
2022/01/01 01:54:09;;;;;;;36.63;29.27;;;;;;;;;;5046314;28;20167;-70
2022/01/01 01:56:35;;;;;;;35.17;29.25;;;;;;;;;;5048522;28;20031;-70
2022/01/01 01:59:01;;;;;;;34.72;27.92;;;;;;;;;;5045146;28;20411;-69
2022/01/01 02:01:27;;;;;;;32.35;26.63;;;;;;;;;;5047183;28;20040;-70
2022/01/01 02:03:56;;;;;;;33.97;25.55;;;;;;;;;;5046595;28;20534;-70
2022/01/01 02:06:23;;;;;;;31.67;25.08;;;;;;;;;;5045297;28;20518;-70
2022/01/01 02:08:50;;;;;;;31.13;25.70;;;;;;;;;;5052066;28;20072;-70
2022/01/01 02:11:18;;;;;;;29.60;25.17;;;;;;;;;;5043052;28;20029;-70
2022/01/01 02:18:52;;;;;;;32.53;26.00;;;;;;;;;;5046794;28;20507;-70
2022/01/01 02:21:20;;;;;;;33.92;26.08;;;;;;;;;;5042494;28;20029;-70
2022/01/01 02:23:56;;;;;;;30.75;25.58;;;;;;;;;;5043466;28;20097;-70
2022/01/01 02:26:28;;;;;;;36.20;28.10;;;;;;;;;;5049174;28;20033;-70
2022/01/01 02:28:54;;;;;;;30.02;25.42;;;;;;;;;;5046253;28;20124;-70
2022/01/01 02:31:19;;;;;;;34.80;26.23;;;;;;;;;;5045801;28;20239;-70
2022/01/01 02:33:45;;;;;;;29.92;24.92;;;;;;;;;;5045388;28;20094;-70
2022/01/01 02:36:11;;;;;;;30.08;25.33;;;;;;;;;;5044288;28;20117;-70
2022/01/01 02:38:37;;;;;;;32.83;25.73;;;;;;;;;;5043611;28;20041;-70
2022/01/01 02:41:03;;;;;;;30.88;24.75;;;;;;;;;;5040715;28;20033;-70
2022/01/01 02:43:29;;;;;;;30.35;26.13;;;;;;;;;;5047626;28;20519;-70
2022/01/01 02:45:54;;;;;;;31.88;26.73;;;;;;;;;;5047389;28;20060;-70
2022/01/01 02:48:20;;;;;;;34.22;27.60;;;;;;;;;;5043292;28;20086;-70
2022/01/01 02:50:46;;;;;;;33.53;27.23;;;;;;;;;;5048871;28;20048;-70
2022/01/01 02:53:13;;;;;;;37.13;27.92;;;;;;;;;;5042737;28;20134;-70
2022/01/01 02:55:39;;;;;;;35.28;26.92;;;;;;;;;;5044607;28;20043;-70
2022/01/01 02:58:05;;;;;;;32.92;25.95;;;;;;;;;;5044417;28;20049;-70
2022/01/01 03:00:31;;;;;;;30.83;26.40;;;;;;;;;;5047847;28;20036;-70
2022/01/01 03:02:56;;;;;;;32.38;26.45;;;;;;;;;;5043006;28;20449;-70
2022/01/01 03:05:22;;;;;;;31.80;25.50;;;;;;;;;;5042842;28;20041;-70
2022/01/01 03:07:48;;;;;;;28.70;23.98;;;;;;;;;;5033649;28;20063;-70
2022/01/01 03:10:13;;;;;;;33.28;26.52;;;;;;;;;;5051988;28;20063;-70
2022/01/01 03:12:39;;;;;;;32.50;25.40;;;;;;;;;;5045900;28;20044;-70
2022/01/01 03:15:05;;;;;;;32.08;26.40;;;;;;;;;;5029516;28;20034;-70
2022/01/01 03:17:31;;;;;;;32.42;25.33;;;;;;;;;;5056591;28;20094;-70
2022/01/01 03:19:56;;;;;;;39.40;29.20;;;;;;;;;;5032811;28;20037;-70
2022/01/01 03:22:22;;;;;;;40.10;31.13;;;;;;;;;;5026702;28;20041;-70
2022/01/01 03:24:48;;;;;;;33.42;26.02;;;;;;;;;;5045560;28;20094;-70
2022/01/01 03:27:13;;;;;;;31.95;25.58;;;;;;;;;;5047719;28;20450;-70
2022/01/01 03:29:39;;;;;;;48.33;33.22;;;;;;;;;;5028379;28;20048;-70
2022/01/01 03:32:05;;;;;;;58.90;39.78;;;;;;;;;;5046401;28;20091;-70
2022/01/01 03:34:31;;;;;;;61.28;37.70;;;;;;;;;;5046507;28;20041;-70
2022/01/01 03:36:57;;;;;;;49.67;35.25;;;;;;;;;;5027928;28;20056;-70
2022/01/01 03:39:23;;;;;;;35.78;30.35;;;;;;;;;;5028064;28;20034;-70
2022/01/01 03:41:49;;;;;;;49.38;34.65;;;;;;;;;;5048728;28;20389;-69
2022/01/01 03:44:15;;;;;;;45.75;33.58;;;;;;;;;;5041393;28;20480;-70
2022/01/01 03:46:41;;;;;;;48.28;34.25;;;;;;;;;;5062105;28;20095;-69
2022/01/01 03:49:06;;;;;;;68.38;41.97;;;;;;;;;;5035753;28;20059;-69
2022/01/01 03:51:32;;;;;;;65.97;43.05;;;;;;;;;;5030092;28;20044;-69
2022/01/01 03:53:58;;;;;;;71.10;45.65;;;;;;;;;;5031553;28;20044;-69
2022/01/01 03:56:23;;;;;;;79.18;47.75;;;;;;;;;;5052797;28;20053;-69
2022/01/01 03:58:49;;;;;;;73.07;45.80;;;;;;;;;;5046959;28;20025;-69
2022/01/01 04:01:14;;;;;;;56.42;39.00;;;;;;;;;;5043224;28;20041;-69
2022/01/01 04:03:41;;;;;;;72.47;47.78;;;;;;;;;;5046129;28;20040;-69
2022/01/01 04:06:07;;;;;;;70.72;45.88;;;;;;;;;;5052320;28;20033;-69
2022/01/01 04:08:32;;;;;;;67.53;44.85;;;;;;;;;;5060424;28;20078;-69
2022/01/01 04:10:58;;;;;;;63.85;41.55;;;;;;;;;;5032907;28;20484;-69
2022/01/01 04:13:24;;;;;;;60.30;40.35;;;;;;;;;;5032030;28;20029;-69
2022/01/01 04:15:49;;;;;;;60.70;39.92;;;;;;;;;;5029621;28;20515;-69
2022/01/01 04:21:03;;;;;;;59.40;39.47;;;;;;;;;;4989718;28;20038;-73
2022/01/01 04:23:29;;;;;;;62.22;40.22;;;;;;;;;;4991086;28;20066;-72
2022/01/01 04:25:54;;;;;;;63.45;41.85;;;;;;;;;;4994639;28;20111;-72
2022/01/01 04:28:20;;;;;;;56.75;39.75;;;;;;;;;;4991520;28;20125;-72
2022/01/01 04:30:46;;;;;;;55.47;38.25;;;;;;;;;;4992135;28;20031;-72
2022/01/01 04:33:11;;;;;;;53.20;35.08;;;;;;;;;;4996106;28;20158;-73
2022/01/01 04:35:37;;;;;;;47.33;33.25;;;;;;;;;;4990965;28;20070;-72
2022/01/01 04:38:02;;;;;;;45.45;32.17;;;;;;;;;;4984005;28;20035;-72
2022/01/01 04:40:28;;;;;;;43.60;30.70;;;;;;;;;;4989769;28;20100;-72
2022/01/01 04:42:54;;;;;;;39.95;30.13;;;;;;;;;;4990594;28;20030;-72
2022/01/01 04:45:19;;;;;;;44.25;32.97;;;;;;;;;;4990838;28;20081;-72
2022/01/01 04:47:45;;;;;;;36.45;28.83;;;;;;;;;;4989836;28;20030;-73
2022/01/01 04:50:11;;;;;;;38.28;28.70;;;;;;;;;;4990272;28;20044;-72
2022/01/01 04:52:36;;;;;;;35.78;28.77;;;;;;;;;;4985486;28;20093;-72
2022/01/01 04:55:02;;;;;;;39.80;30.75;;;;;;;;;;4990683;28;20034;-72
2022/01/01 04:57:30;;;;;;;42.17;30.58;;;;;;;;;;4988514;28;20044;-72
2022/01/01 04:59:57;;;;;;;41.70;30.75;;;;;;;;;;4989642;28;20398;-72
2022/01/01 05:02:24;;;;;;;44.78;33.08;;;;;;;;;;4990056;28;20495;-72
2022/01/01 05:04:50;;;;;;;41.92;30.67;;;;;;;;;;4987687;28;20034;-72
2022/01/01 05:07:15;;;;;;;36.60;28.08;;;;;;;;;;4989994;28;20124;-72
2022/01/01 05:09:41;;;;;;;42.42;29.00;;;;;;;;;;4990367;28;20034;-72
2022/01/01 05:12:07;;;;;;;34.10;27.48;;;;;;;;;;4989896;28;20038;-72
2022/01/01 05:14:34;;;;;;;37.38;27.70;;;;;;;;;;4989838;28;20397;-72
2022/01/01 05:17:00;;;;;;;39.30;27.95;;;;;;;;;;4989835;28;20367;-72
2022/01/01 05:19:25;;;;;;;42.00;30.48;;;;;;;;;;4989549;28;20549;-72
2022/01/01 05:21:55;;;;;;;42.80;30.52;;;;;;;;;;4988627;28;20436;-73
2022/01/01 05:24:21;;;;;;;44.30;31.90;;;;;;;;;;4993689;28;20042;-72
2022/01/01 05:26:47;;;;;;;41.00;31.27;;;;;;;;;;4989183;28;20109;-72
2022/01/01 05:29:13;;;;;;;50.58;33.33;;;;;;;;;;4989074;28;20062;-72
2022/01/01 05:31:39;;;;;;;55.67;35.65;;;;;;;;;;4987228;28;20088;-72
2022/01/01 05:34:05;;;;;;;51.70;33.97;;;;;;;;;;4989037;28;20045;-72
2022/01/01 05:36:31;;;;;;;60.85;36.03;;;;;;;;;;4989419;28;20038;-72
2022/01/01 05:38:56;;;;;;;57.70;36.17;;;;;;;;;;4989166;28;20030;-72
2022/01/01 05:41:22;;;;;;;56.40;34.80;;;;;;;;;;4990999;28;20489;-73
2022/01/01 05:43:48;;;;;;;54.45;34.90;;;;;;;;;;4991483;28;20042;-72
2022/01/01 05:46:14;;;;;;;51.25;34.47;;;;;;;;;;4988929;28;20499;-72
2022/01/01 05:48:40;;;;;;;52.67;32.33;;;;;;;;;;4988469;28;20042;-72
2022/01/01 05:51:06;;;;;;;49.08;33.17;;;;;;;;;;4988973;28;20129;-72
2022/01/01 05:53:32;;;;;;;43.83;31.48;;;;;;;;;;4989388;28;20110;-72
2022/01/01 05:55:58;;;;;;;46.10;32.38;;;;;;;;;;4988992;28;20087;-72
2022/01/01 05:58:23;;;;;;;50.75;33.95;;;;;;;;;;4988689;28;20482;-72
2022/01/01 06:00:49;;;;;;;47.25;31.02;;;;;;;;;;4988370;28;20030;-72
2022/01/01 06:03:15;;;;;;;52.25;33.33;;;;;;;;;;4988744;28;20050;-72
2022/01/01 06:05:41;;;;;;;48.67;31.75;;;;;;;;;;4989726;28;20269;-72
2022/01/01 06:08:07;;;;;;;46.75;31.70;;;;;;;;;;4995034;28;20053;-72
2022/01/01 06:10:33;;;;;;;41.60;29.75;;;;;;;;;;4988688;28;20077;-72
2022/01/01 06:12:58;;;;;;;43.20;29.63;;;;;;;;;;4989025;28;20065;-72
2022/01/01 06:15:24;;;;;;;40.80;28.33;;;;;;;;;;4990590;28;20044;-72
2022/01/01 06:17:51;;;;;;;38.35;29.35;;;;;;;;;;4995454;28;20034;-72
2022/01/01 06:20:17;;;;;;;39.80;28.65;;;;;;;;;;4988160;28;20539;-72
2022/01/01 06:22:42;;;;;;;39.85;28.38;;;;;;;;;;4988035;28;20042;-72
2022/01/01 06:25:08;;;;;;;42.58;29.08;;;;;;;;;;4991481;28;20088;-72
2022/01/01 06:27:34;;;;;;;42.38;28.50;;;;;;;;;;4988731;28;20065;-72
2022/01/01 06:29:59;;;;;;;37.67;26.48;;;;;;;;;;4988083;28;20077;-72
2022/01/01 06:32:25;;;;;;;33.20;26.40;;;;;;;;;;4985826;28;20026;-72
2022/01/01 06:34:50;;;;;;;32.45;25.65;;;;;;;;;;4993272;28;20056;-72
2022/01/01 06:37:16;;;;;;;64.70;49.42;;;;;;;;;;4990931;28;20069;-72
2022/01/01 06:39:42;;;;;;;34.40;26.02;;;;;;;;;;4987366;28;20038;-72
2022/01/01 06:42:08;;;;;;;32.25;25.65;;;;;;;;;;4992744;28;20046;-72
2022/01/01 06:44:33;;;;;;;34.47;25.85;;;;;;;;;;4988921;28;20479;-72
2022/01/01 06:46:59;;;;;;;28.45;25.05;;;;;;;;;;4988808;28;20121;-72
2022/01/01 06:49:25;;;;;;;31.23;24.50;;;;;;;;;;4992604;28;20026;-72
2022/01/01 06:51:50;;;;;;;30.80;25.33;;;;;;;;;;4994317;28;20041;-72
2022/01/01 06:54:16;;;;;;;29.77;24.23;;;;;;;;;;4988365;28;20038;-72
2022/01/01 06:56:41;;;;;;;30.33;25.10;;;;;;;;;;4988111;28;20061;-72
2022/01/01 06:59:09;;;;;;;32.40;23.50;;;;;;;;;;4985926;28;20093;-72
2022/01/01 07:01:36;;;;;;;26.52;21.33;;;;;;;;;;4987693;28;20088;-72
2022/01/01 07:04:03;;;;;;;31.20;22.38;;;;;;;;;;4988640;28;20120;-71
2022/01/01 07:06:30;;;;;;;25.30;22.60;;;;;;;;;;4986844;28;20485;-73
2022/01/01 07:08:56;;;;;;;31.25;23.25;;;;;;;;;;4991666;28;20125;-73
2022/01/01 07:11:21;;;;;;;28.92;24.88;;;;;;;;;;4986806;28;20109;-72
2022/01/01 07:13:47;;;;;;;29.98;23.23;;;;;;;;;;4988264;28;20414;-73
2022/01/01 07:16:13;;;;;;;29.13;22.23;;;;;;;;;;4992221;28;20037;-73
2022/01/01 07:18:38;;;;;;;30.45;23.27;;;;;;;;;;4997385;28;20125;-72
2022/01/01 07:21:04;;;;;;;29.90;25.13;;;;;;;;;;4987697;28;20153;-71
2022/01/01 07:23:30;;;;;;;33.60;25.65;;;;;;;;;;4994969;28;20042;-70
2022/01/01 07:25:55;;;;;;;27.90;23.30;;;;;;;;;;4995468;28;20045;-70
2022/01/01 07:28:21;;;;;;;29.52;23.50;;;;;;;;;;4999278;28;20109;-70
2022/01/01 07:30:46;;;;;;;30.40;24.40;;;;;;;;;;4991925;28;20045;-70
2022/01/01 07:33:13;;;;;;;27.67;23.90;;;;;;;;;;5000848;28;20029;-70
2022/01/01 07:35:39;;;;;;;28.20;23.45;;;;;;;;;;4995624;28;20509;-70
2022/01/01 07:38:05;;;;;;;28.73;23.73;;;;;;;;;;4995250;28;20128;-70
2022/01/01 07:40:34;;;;;;;28.17;22.92;;;;;;;;;;4996934;28;20062;-70
2022/01/01 07:43:13;;;;;;;30.92;23.60;;;;;;;;;;4997380;28;20445;-70
2022/01/01 07:45:40;;;;;;;27.85;22.55;;;;;;;;;;4993580;28;20042;-70
2022/01/01 07:48:06;;;;;;;27.60;22.98;;;;;;;;;;4995858;28;20038;-69
2022/01/01 07:50:32;;;;;;;27.80;23.15;;;;;;;;;;4996618;28;20048;-70
2022/01/01 07:52:58;;;;;;;29.77;25.20;;;;;;;;;;4993899;28;20117;-70
2022/01/01 07:55:23;;;;;;;28.98;24.40;;;;;;;;;;4995760;28;20030;-70
2022/01/01 07:57:49;;;;;;;30.50;25.73;;;;;;;;;;4994828;28;20057;-70
2022/01/01 08:00:15;;;;;;;33.28;23.67;;;;;;;;;;4987663;28;20089;-70
2022/01/01 08:02:42;;;;;;;30.30;24.85;;;;;;;;;;4991789;28;20034;-70
2022/01/01 08:05:08;;;;;;;29.52;23.67;;;;;;;;;;4995183;28;20058;-70
2022/01/01 08:07:34;;;;;;;26.67;22.48;;;;;;;;;;4994326;28;20033;-70
2022/01/01 08:10:00;;;;;;;27.08;23.08;;;;;;;;;;4995124;28;20025;-70
2022/01/01 08:12:25;;;;;;;25.13;22.02;;;;;;;;;;4990095;28;20544;-70
2022/01/01 08:14:53;;;;;;;26.42;22.08;;;;;;;;;;4995261;28;20445;-70
2022/01/01 08:17:19;;;;;;;31.55;25.33;;;;;;;;;;4994893;28;20037;-69
2022/01/01 08:19:46;;;;;;;27.00;24.13;;;;;;;;;;4993437;28;20037;-70
2022/01/01 08:22:13;;;;;;;25.25;21.63;;;;;;;;;;4993356;28;20056;-70
2022/01/01 08:24:39;;;;;;;24.38;21.98;;;;;;;;;;4996459;28;20038;-70
2022/01/01 08:27:05;;;;;;;24.55;21.88;;;;;;;;;;4995552;28;20038;-70
2022/01/01 08:29:31;;;;;;;23.88;21.17;;;;;;;;;;4996161;28;20038;-70
2022/01/01 08:31:57;;;;;;;25.33;22.38;;;;;;;;;;4996369;28;20037;-70
2022/01/01 08:34:24;;;;;;;22.88;20.42;;;;;;;;;;4991105;28;20435;-70
2022/01/01 08:36:50;;;;;;;119.65;53.78;;;;;;;;;;4995342;28;20069;-70
2022/01/01 08:39:16;;;;;;;25.92;21.38;;;;;;;;;;4994325;28;20456;-70
2022/01/01 08:41:43;;;;;;;25.42;22.08;;;;;;;;;;4988576;28;20456;-70
2022/01/01 08:44:09;;;;;;;24.80;22.23;;;;;;;;;;4989534;28;20046;-69
2022/01/01 08:46:34;;;;;;;23.30;20.98;;;;;;;;;;4998358;28;20265;-70
2022/01/01 08:49:02;;;;;;;32.17;28.27;;;;;;;;;;4990700;28;20786;-70
2022/01/01 08:51:30;;;;;;;22.27;19.58;;;;;;;;;;4987636;28;20105;-70
2022/01/01 08:53:56;;;;;;;22.30;20.10;;;;;;;;;;4991347;28;20042;-70
2022/01/01 08:56:22;;;;;;;22.08;19.73;;;;;;;;;;4994905;28;20401;-70
2022/01/01 08:58:48;;;;;;;22.85;20.65;;;;;;;;;;4988159;28;20551;-70
2022/01/01 09:01:14;;;;;;;24.52;21.83;;;;;;;;;;4986677;28;20030;-70
2022/01/01 09:03:41;;;;;;;22.00;19.85;;;;;;;;;;4994927;28;20046;-70
2022/01/01 09:06:08;;;;;;;22.38;20.13;;;;;;;;;;4991651;28;20197;-70
2022/01/01 09:08:39;;;;;;;19.85;17.88;;;;;;;;;;4988478;28;20038;-70
2022/01/01 09:11:05;;;;;;;20.38;18.45;;;;;;;;;;4990420;28;20034;-70
2022/01/01 09:13:31;;;;;;;22.00;19.80;;;;;;;;;;4994399;28;20530;-70
2022/01/01 09:15:58;;;;;;;26.67;24.02;;;;;;;;;;4988977;28;20130;-70
2022/01/01 09:18:23;;;;;;;21.25;18.95;;;;;;;;;;4987292;28;20064;-70
2022/01/01 09:20:49;;;;;;;20.02;17.95;;;;;;;;;;4993374;28;20030;-70
2022/01/01 09:23:16;;;;;;;21.35;18.83;;;;;;;;;;4991920;28;20627;-70
2022/01/01 09:25:42;;;;;;;18.85;16.95;;;;;;;;;;4988429;28;20042;-70
2022/01/01 09:28:08;;;;;;;19.38;17.35;;;;;;;;;;4986899;28;20065;-70
2022/01/01 09:30:34;;;;;;;19.45;17.58;;;;;;;;;;4987579;28;20313;-70
2022/01/01 09:32:59;;;;;;;19.15;17.27;;;;;;;;;;4988838;28;20054;-70
2022/01/01 09:35:25;;;;;;;19.25;17.35;;;;;;;;;;4987827;28;20046;-70
2022/01/01 09:37:51;;;;;;;18.70;16.63;;;;;;;;;;4988940;28;20465;-70
2022/01/01 09:40:17;;;;;;;19.45;17.38;;;;;;;;;;4993907;28;20034;-70
2022/01/01 09:42:44;;;;;;;19.08;17.20;;;;;;;;;;4988893;28;20034;-70
2022/01/01 09:45:10;;;;;;;18.92;17.13;;;;;;;;;;4992335;28;20033;-70
2022/01/01 09:47:37;;;;;;;17.88;16.17;;;;;;;;;;4993428;28;20477;-69
2022/01/01 09:50:06;;;;;;;18.27;16.45;;;;;;;;;;4982673;28;20486;-70
2022/01/01 09:52:33;;;;;;;19.48;17.65;;;;;;;;;;4981306;28;20452;-69
2022/01/01 09:54:59;;;;;;;121.63;55.90;;;;;;;;;;4996388;28;20038;-69
2022/01/01 09:57:24;;;;;;;42.90;28.55;;;;;;;;;;4988547;28;20038;-70
2022/01/01 09:59:51;;;;;;;19.67;17.77;;;;;;;;;;4987113;28;20129;-70
2022/01/01 10:02:17;;;;;;;20.70;18.63;;;;;;;;;;4986175;28;20055;-70
2022/01/01 10:04:45;;;;;;;17.52;15.93;;;;;;;;;;4996959;28;20038;-70
2022/01/01 10:07:12;;;;;;;17.02;15.40;;;;;;;;;;4987970;28;20089;-70
2022/01/01 10:09:38;;;;;;;17.35;15.55;;;;;;;;;;4987218;28;20513;-69
2022/01/01 10:12:06;;;;;;;16.75;15.25;;;;;;;;;;4992699;28;20033;-69
2022/01/01 10:14:35;;;;;;;18.02;16.33;;;;;;;;;;4988522;28;20038;-69
2022/01/01 10:17:22;;;;;;;17.27;15.68;;;;;;;;;;4987602;28;20046;-70
2022/01/01 10:19:51;;;;;;;22.73;20.13;;;;;;;;;;4996971;23;20080;-89
2022/01/01 10:22:22;;;;;;;19.33;17.60;;;;;;;;;;4962398;28;20370;-89
2022/01/01 10:27:52;;;;;;;17.58;15.95;;;;;;;;;;5010436;28;20155;-88
2022/01/01 10:30:35;;;;;;;41.15;28.13;;;;;;;;;;5004185;28;20030;-89
2022/01/01 10:33:06;;;;;;;20.35;18.25;;;;;;;;;;4980668;28;20045;-89
2022/01/01 10:35:49;;;;;;;16.85;15.07;;;;;;;;;;5013120;22;20878;-74
2022/01/01 10:38:16;;;;;;;18.23;16.33;;;;;;;;;;4986318;28;20044;-74
2022/01/01 10:40:43;;;;;;;18.90;17.10;;;;;;;;;;4991700;28;20089;-74
2022/01/01 10:43:10;;;;;;;19.92;17.92;;;;;;;;;;4989221;28;20325;-74
2022/01/01 10:45:37;;;;;;;18.02;16.23;;;;;;;;;;4980138;28;20086;-74
2022/01/01 10:48:04;;;;;;;17.35;15.77;;;;;;;;;;4985866;28;20046;-73
2022/01/01 10:50:35;;;;;;;58.15;36.75;;;;;;;;;;4985383;28;20093;-75
2022/01/01 10:53:20;;;;;;;19.10;17.27;;;;;;;;;;4984864;28;20069;-74
2022/01/01 10:55:51;;;;;;;18.75;16.65;;;;;;;;;;4986087;28;20280;-74
2022/01/01 10:58:19;;;;;;;19.00;16.98;;;;;;;;;;4987035;28;20042;-74
2022/01/01 11:00:45;;;;;;;30.85;27.75;;;;;;;;;;4983365;28;20405;-74
2022/01/01 11:03:15;;;;;;;18.65;17.02;;;;;;;;;;4984314;28;20030;-75
2022/01/01 11:05:41;;;;;;;21.23;19.23;;;;;;;;;;4985758;28;20080;-74
2022/01/01 11:08:10;;;;;;;17.38;15.85;;;;;;;;;;4982009;28;20434;-74
2022/01/01 11:10:37;;;;;;;19.23;17.05;;;;;;;;;;4984805;28;20038;-74
2022/01/01 11:13:04;;;;;;;23.77;20.40;;;;;;;;;;4982981;28;20401;-73
2022/01/01 11:15:31;;;;;;;16.85;15.23;;;;;;;;;;4979587;28;20038;-73
2022/01/01 11:17:58;;;;;;;21.70;19.65;;;;;;;;;;4985973;28;20042;-73
2022/01/01 11:20:26;;;;;;;17.80;16.27;;;;;;;;;;4984836;28;20026;-73
2022/01/01 11:22:52;;;;;;;30.42;25.55;;;;;;;;;;4985986;28;20076;-73
2022/01/01 11:25:19;;;;;;;16.45;14.95;;;;;;;;;;4985778;28;20677;-73
2022/01/01 11:27:46;;;;;;;17.88;16.27;;;;;;;;;;4986416;28;20099;-73
2022/01/01 11:30:13;;;;;;;16.77;15.20;;;;;;;;;;4991401;28;20049;-73
2022/01/01 11:32:57;;;;;;;20.25;18.15;;;;;;;;;;4986497;28;20081;-73
2022/01/01 11:35:44;;;;;;;64.25;37.30;;;;;;;;;;4986105;28;20443;-73
2022/01/01 11:38:15;;;;;;;69.32;45.60;;;;;;;;;;4983732;28;20034;-73
2022/01/01 11:40:57;;;;;;;18.45;16.65;;;;;;;;;;4986022;28;20042;-73
2022/01/01 11:43:52;;;;;;;19.88;17.17;;;;;;;;;;4985155;28;20209;-73
2022/01/01 11:46:19;;;;;;;17.83;16.33;;;;;;;;;;4985658;28;20045;-73
2022/01/01 11:48:46;;;;;;;18.25;16.42;;;;;;;;;;4986036;28;20045;-73
2022/01/01 11:51:29;;;;;;;15.93;14.43;;;;;;;;;;4985533;28;20113;-73
2022/01/01 11:54:13;;;;;;;17.65;16.15;;;;;;;;;;4985094;28;20045;-72
2022/01/01 11:56:56;;;;;;;19.10;17.25;;;;;;;;;;4984868;28;20076;-73
2022/01/01 11:59:25;;;;;;;16.75;15.35;;;;;;;;;;4983266;28;20046;-73
2022/01/01 12:01:53;;;;;;;16.13;14.68;;;;;;;;;;4983844;28;20039;-73
2022/01/01 12:04:39;;;;;;;18.17;16.77;;;;;;;;;;4988958;28;20100;-73
2022/01/01 12:07:20;;;;;;;15.63;14.38;;;;;;;;;;4987870;28;20070;-73
2022/01/01 12:09:55;;;;;;;15.88;14.57;;;;;;;;;;4995013;28;20046;-73
2022/01/01 12:12:58;;;;;;;16.05;14.65;;;;;;;;;;4984046;28;20054;-73
2022/01/01 12:15:28;;;;;;;17.00;15.50;;;;;;;;;;4988966;28;20045;-73
2022/01/01 12:18:15;;;;;;;17.40;15.65;;;;;;;;;;4989690;28;20102;-73
2022/01/01 12:20:47;;;;;;;16.25;14.85;;;;;;;;;;4987862;28;20468;-73
2022/01/01 12:23:19;;;;;;;17.33;15.18;;;;;;;;;;4988915;28;20555;-72
2022/01/01 12:25:46;;;;;;;16.52;14.95;;;;;;;;;;4989833;28;20056;-73
2022/01/01 12:28:17;;;;;;;15.18;13.98;;;;;;;;;;4990551;28;20042;-72
2022/01/01 12:30:52;;;;;;;15.98;14.48;;;;;;;;;;4986237;28;20034;-72
2022/01/01 12:33:45;;;;;;;16.33;14.93;;;;;;;;;;4988974;28;20042;-73
2022/01/01 12:36:16;;;;;;;15.02;13.65;;;;;;;;;;4989967;28;20145;-72
2022/01/01 12:39:04;;;;;;;15.98;14.57;;;;;;;;;;4987815;28;20118;-73
2022/01/01 12:41:31;;;;;;;15.88;14.52;;;;;;;;;;4987309;28;20049;-73
2022/01/01 12:44:06;;;;;;;14.82;13.52;;;;;;;;;;4988701;28;20038;-73
2022/01/01 12:46:37;;;;;;;15.30;14.13;;;;;;;;;;4987795;28;20519;-73
2022/01/01 12:49:07;;;;;;;15.93;14.52;;;;;;;;;;4987901;28;20045;-73
2022/01/01 12:51:37;;;;;;;14.50;13.30;;;;;;;;;;4987890;28;20034;-72
2022/01/01 12:54:13;;;;;;;15.40;14.20;;;;;;;;;;4988514;28;20053;-73
2022/01/01 12:56:41;;;;;;;14.90;13.57;;;;;;;;;;4987096;28;20165;-73
2022/01/01 12:59:10;;;;;;;16.02;14.63;;;;;;;;;;4985191;28;20088;-73
2022/01/01 13:01:42;;;;;;;15.25;14.00;;;;;;;;;;4986041;28;20923;-72
2022/01/01 13:04:17;;;;;;;15.10;13.82;;;;;;;;;;4985904;28;20091;-73
2022/01/01 13:06:48;;;;;;;15.25;13.95;;;;;;;;;;4988389;28;20045;-72
2022/01/01 13:09:18;;;;;;;15.23;13.77;;;;;;;;;;4987360;28;20041;-72
2022/01/01 13:11:46;;;;;;;14.48;13.23;;;;;;;;;;4987295;28;20053;-73
2022/01/01 13:14:13;;;;;;;14.98;13.73;;;;;;;;;;4987883;28;20502;-73
2022/01/01 13:16:39;;;;;;;15.88;14.38;;;;;;;;;;4988670;28;20042;-73
2022/01/01 13:19:05;;;;;;;15.80;14.50;;;;;;;;;;4986934;28;20402;-73
2022/01/01 13:21:33;;;;;;;15.88;14.48;;;;;;;;;;4986569;28;20066;-72
2022/01/01 13:23:59;;;;;;;15.18;13.88;;;;;;;;;;4988195;28;20038;-72
2022/01/01 13:26:24;;;;;;;15.40;14.13;;;;;;;;;;4987215;28;20806;-73
2022/01/01 13:28:54;;;;;;;15.25;13.93;;;;;;;;;;4988913;28;20038;-72
2022/01/01 13:31:20;;;;;;;;;;;;;;;;;;4988344;28;20034;-73
2022/01/01 13:33:52;;;;;;;16.38;15.02;;;;;;;;;;4988532;28;19917;-73
2022/01/01 13:36:32;;;;;;;14.73;13.55;;;;;;;;;;4986645;28;20042;-73
2022/01/01 13:39:00;;;;;;;14.32;13.18;;;;;;;;;;4984137;28;20505;-73
2022/01/01 13:41:55;;;;;;;15.43;13.90;;;;;;;;;;4984466;28;20074;-73
2022/01/01 13:44:31;;;;;;;15.27;14.00;;;;;;;;;;4979605;28;20051;-72
2022/01/01 13:47:07;;;;;;;15.15;13.85;;;;;;;;;;4986915;28;20112;-73
2022/01/01 13:49:55;;;;;;;15.25;14.05;;;;;;;;;;4983896;28;20086;-72
2022/01/01 13:52:23;;;;;;;15.43;14.13;;;;;;;;;;4983725;28;20117;-73
2022/01/01 13:55:00;;;;;;;18.45;16.75;;;;;;;;;;4987032;28;20069;-73
2022/01/01 13:57:29;;;;;;;22.35;19.85;;;;;;;;;;4987747;28;20060;-73
2022/01/01 13:59:56;;;;;;;15.73;14.23;;;;;;;;;;4982262;28;20069;-73
2022/01/01 14:02:25;;;;;;;15.07;13.88;;;;;;;;;;4986248;28;20096;-73
2022/01/01 14:04:55;;;;;;;16.45;14.95;;;;;;;;;;4988174;28;20539;-73
2022/01/01 14:07:20;;;;;;;15.35;14.05;;;;;;;;;;4987554;28;20050;-73
2022/01/01 14:10:06;;;;;;;16.42;14.77;;;;;;;;;;4982755;28;20034;-72
2022/01/01 14:12:33;;;;;;;14.93;13.52;;;;;;;;;;4985036;28;20682;-72
2022/01/01 14:15:17;;;;;;;14.93;13.63;;;;;;;;;;4986446;28;20169;-73
2022/01/01 14:18:09;;;;;;;17.95;16.35;;;;;;;;;;4985220;28;20038;-73
2022/01/01 14:20:50;;;;;;;15.07;13.77;;;;;;;;;;4988252;28;20045;-73
2022/01/01 14:23:25;;;;;;;13.70;12.60;;;;;;;;;;4993928;28;20050;-73
2022/01/01 14:26:17;;;;;;;15.95;14.65;;;;;;;;;;4987473;28;20092;-72
2022/01/01 14:28:50;;;;;;;14.93;13.65;;;;;;;;;;4988035;28;20056;-72
2022/01/01 14:31:16;;;;;;;14.40;13.10;;;;;;;;;;5005107;28;20129;-73
2022/01/01 14:33:42;;;;;;;15.25;13.95;;;;;;;;;;4992180;28;20080;-73